Time;durP1;ratioP1;P1;durP2;ratioP2;P2;SDS_P1;SDS_P2;PMS_P1;PMS_P2;Temp;Humidity;BMP_temperature;BMP_pressure;BME280_temperature;BME280_humidity;BME280_pressure;Samples;Min_cycle;Max_cycle;Signal;HPM_P1;HPM_P2
2022/02/23 00:01:51;;;;;;;0.10;0.10;;;;;;;9.88;54.89;102293.00;5034337;28;20021;-87
2022/02/23 00:04:17;;;;;;;37.00;2.05;;;;;;;9.80;55.46;102297.38;5012698;28;20388;-86
2022/02/23 00:06:45;;;;;;;0.10;0.10;;;;;;;9.75;55.36;102296.47;5032975;28;20029;-88
2022/02/23 00:09:11;;;;;;;0.10;0.10;;;;;;;9.72;55.71;102302.63;5029610;28;20358;-87
2022/02/23 00:11:39;;;;;;;0.10;0.10;;;;;;;9.70;55.76;102312.31;5034155;28;20064;-82
2022/02/23 00:14:05;;;;;;;0.10;0.10;;;;;;;9.59;56.19;102308.69;5034500;28;20029;-85
2022/02/23 00:16:31;;;;;;;0.10;0.10;;;;;;;9.61;56.05;102309.56;5032885;28;20029;-83
2022/02/23 00:18:57;;;;;;;0.10;0.10;;;;;;;9.61;56.49;102312.22;5025534;28;20048;-85
2022/02/23 00:21:24;;;;;;;0.10;0.10;;;;;;;9.52;56.62;102323.63;5032710;28;20032;-85
2022/02/23 00:23:50;;;;;;;0.10;0.10;;;;;;;9.54;56.68;102330.72;5026900;28;20039;-85
2022/02/23 00:26:16;;;;;;;0.00;0.00;;;;;;;9.50;56.83;102320.09;5034027;28;20025;-85
2022/02/23 00:28:42;;;;;;;0.10;0.10;;;;;;;9.55;56.62;102331.59;5032321;28;20026;-87
2022/02/23 00:31:08;;;;;;;0.10;0.10;;;;;;;9.47;56.25;102326.25;5012453;28;20033;-81
2022/02/23 00:33:35;;;;;;;0.20;0.20;;;;;;;9.47;56.57;102338.56;5032879;28;20029;-86
2022/02/23 00:36:01;;;;;;;0.10;0.10;;;;;;;9.47;56.50;102339.47;5031160;28;20456;-82
2022/02/23 00:38:27;;;;;;;0.00;0.00;;;;;;;9.45;56.76;102335.06;5033355;28;20115;-88
2022/02/23 00:40:53;;;;;;;0.10;0.10;;;;;;;9.34;56.85;102349.03;5024210;28;20033;-86
2022/02/23 00:43:20;;;;;;;0.10;0.10;;;;;;;9.37;56.73;102338.50;5031419;28;20112;-84
2022/02/23 00:45:46;;;;;;;0.10;0.10;;;;;;;9.33;57.45;102341.09;5025994;28;20084;-87
2022/02/23 00:48:12;;;;;;;0.00;0.00;;;;;;;9.33;56.99;102349.94;5029049;28;20117;-85
2022/02/23 00:50:39;;;;;;;0.10;0.10;;;;;;;9.45;56.83;102351.78;5033451;28;20511;-87
2022/02/23 00:53:05;;;;;;;0.10;0.10;;;;;;;9.54;56.50;102341.31;5033881;28;20029;-87
2022/02/23 00:55:31;;;;;;;0.10;0.10;;;;;;;9.63;55.84;102351.09;5027941;28;20057;-85
2022/02/23 00:57:57;;;;;;;0.08;0.08;;;;;;;9.55;56.29;102347.47;5025294;28;20034;-86
2022/02/23 01:00:24;;;;;;;1.70;1.55;;;;;;;9.57;55.97;102340.44;5031963;28;20118;-86
2022/02/23 01:02:50;;;;;;;0.10;0.10;;;;;;;9.60;55.95;102350.16;5030337;28;20556;-87
2022/02/23 01:05:16;;;;;;;0.10;0.10;;;;;;;9.62;55.80;102346.66;5032412;28;20025;-86
2022/02/23 01:07:43;;;;;;;0.10;0.10;;;;;;;9.58;55.85;102347.47;5032040;28;20025;-82
2022/02/23 01:10:09;;;;;;;0.20;0.20;;;;;;;9.57;55.81;102361.63;5022979;28;20048;-88
2022/02/23 01:12:36;;;;;;;0.10;0.10;;;;;;;9.57;55.65;102356.31;5033191;28;20030;-87
2022/02/23 01:15:03;;;;;;;0.10;0.10;;;;;;;9.53;55.94;102363.34;5029510;28;20499;-87
2022/02/23 01:17:29;;;;;;;0.10;0.10;;;;;;;9.64;55.43;102362.53;5033179;28;20065;-86
2022/02/23 01:19:55;;;;;;;0.10;0.10;;;;;;;9.59;55.65;102369.56;5031037;28;20042;-84
2022/02/23 01:22:22;;;;;;;0.10;0.10;;;;;;;9.64;55.67;102362.53;5025841;28;20032;-81
2022/02/23 01:24:48;;;;;;;0.10;0.10;;;;;;;9.57;55.28;102372.19;5031625;28;20057;-87
2022/02/23 01:27:14;;;;;;;0.10;0.10;;;;;;;9.57;55.39;102376.59;5031971;28;20059;-86
2022/02/23 01:29:40;;;;;;;0.05;0.05;;;;;;;9.59;55.69;102381.00;5032286;28;20056;-88
2022/02/23 01:32:07;;;;;;;0.10;0.10;;;;;;;9.48;55.81;102382.69;5030139;28;20036;-88
2022/02/23 01:34:33;;;;;;;0.10;0.10;;;;;;;9.53;55.82;102371.28;5032107;28;20044;-87
2022/02/23 01:37:00;;;;;;;0.10;0.10;;;;;;;9.43;55.71;102379.97;5032303;28;20108;-88
2022/02/23 01:39:26;;;;;;;0.10;0.10;;;;;;;9.40;56.26;102387.91;5028814;28;20029;-87
2022/02/23 01:41:52;;;;;;;0.10;0.10;;;;;;;9.46;56.33;102395.00;5030717;28;20484;-85
2022/02/23 01:44:18;;;;;;;0.10;0.10;;;;;;;9.45;55.76;102398.53;5028992;28;20087;-87
2022/02/23 01:46:44;;;;;;;0.10;0.10;;;;;;;9.46;55.69;102395.00;5032050;28;20033;-86
2022/02/23 01:49:10;;;;;;;0.10;0.10;;;;;;;9.36;56.17;102402.84;5031769;28;20026;-86
2022/02/23 01:51:37;;;;;;;1.75;0.82;;;;;;;9.44;56.40;102407.34;5025849;28;20443;-85
2022/02/23 01:54:03;;;;;;;0.10;0.10;;;;;;;9.42;56.18;102409.06;5024453;28;20068;-87
2022/02/23 01:56:29;;;;;;;0.15;0.15;;;;;;;9.35;56.51;102409.00;5019707;28;20030;-86
2022/02/23 01:58:55;;;;;;;0.10;0.10;;;;;;;9.27;56.56;102405.41;5024795;28;20029;-84
2022/02/23 02:01:22;;;;;;;0.10;0.10;;;;;;;9.28;56.64;102407.16;5026340;28;20033;-88
2022/02/23 02:03:48;;;;;;;0.35;0.35;;;;;;;9.27;57.01;102421.28;5024888;28;20073;-87
2022/02/23 02:06:14;;;;;;;0.03;0.03;;;;;;;9.26;57.17;102424.81;5021696;28;20385;-86
2022/02/23 02:08:40;;;;;;;0.20;0.20;;;;;;;9.18;57.19;102432.66;5031060;28;20028;-85
2022/02/23 02:11:06;;;;;;;0.10;0.10;;;;;;;9.10;57.80;102431.66;5028119;28;20041;-88
2022/02/23 02:13:33;;;;;;;0.05;0.05;;;;;;;9.14;58.03;102432.59;5031392;28;20029;-88
2022/02/23 02:15:59;;;;;;;0.10;0.10;;;;;;;9.12;57.84;102442.25;5032751;28;20037;-87
2022/02/23 02:18:25;;;;;;;0.20;0.20;;;;;;;8.97;58.93;102441.22;5030675;28;20057;-85
2022/02/23 02:20:51;;;;;;;0.10;0.10;;;;;;;9.09;58.09;102448.41;5017345;28;20100;-87
2022/02/23 02:23:17;;;;;;;0.10;0.10;;;;;;;9.05;58.03;102446.59;5019415;28;20030;-88
2022/02/23 02:25:44;;;;;;;2.90;2.10;;;;;;;9.01;58.22;102445.66;5031011;28;20034;-82
2022/02/23 02:28:11;;;;;;;0.10;0.10;;;;;;;9.09;58.30;102447.53;5029206;28;20088;-88
2022/02/23 02:30:37;;;;;;;1.13;1.08;;;;;;;9.02;58.25;102447.44;5032105;28;20030;-87
2022/02/23 02:33:04;;;;;;;0.10;0.10;;;;;;;9.01;58.24;102443.03;5032350;28;20507;-86
2022/02/23 02:35:36;;;;;;;0.10;0.10;;;;;;;8.99;58.81;102446.53;5028291;28;20029;-85
2022/02/23 02:38:04;;;;;;;0.10;0.10;;;;;;;9.01;58.36;102444.75;5026355;28;20029;-85
2022/02/23 02:40:32;;;;;;;0.10;0.10;;;;;;;8.95;58.54;102444.69;5030763;28;20392;-87
2022/02/23 02:42:58;;;;;;;0.82;0.82;;;;;;;9.00;58.84;102438.59;5035676;28;20028;-87
2022/02/23 02:45:30;;;;;;;0.10;0.10;;;;;;;8.99;58.90;102442.09;5036175;28;20037;-85
2022/02/23 02:48:04;;;;;;;0.10;0.10;;;;;;;8.95;58.59;102448.25;5053981;22;20037;-80
2022/02/23 02:50:37;;;;;;;0.13;0.13;;;;;;;8.86;58.80;102450.75;5050607;28;20535;-80
2022/02/23 02:53:11;;;;;;;0.10;0.10;;;;;;;8.78;59.51;102452.41;5046069;28;20576;-81
2022/02/23 02:55:46;;;;;;;4.38;0.57;;;;;;;8.78;59.13;102453.28;5044201;28;20146;-81
2022/02/23 02:58:13;;;;;;;0.13;0.13;;;;;;;8.69;59.72;102454.06;5032730;28;20099;-82
2022/02/23 03:00:40;;;;;;;0.10;0.10;;;;;;;8.58;60.70;102460.94;5033309;28;20033;-81
2022/02/23 03:03:06;;;;;;;0.10;0.10;;;;;;;8.59;59.90;102465.38;5031927;28;20123;-82
2022/02/23 03:05:32;;;;;;;0.10;0.10;;;;;;;8.52;60.54;102461.75;5034193;28;20047;-81
2022/02/23 03:07:59;;;;;;;0.10;0.10;;;;;;;8.47;60.46;102467.84;5024474;28;20037;-81
2022/02/23 03:10:25;;;;;;;8.98;1.75;;;;;;;8.39;61.04;102468.56;5028427;28;20535;-81
2022/02/23 03:12:51;;;;;;;0.10;0.10;;;;;;;8.33;60.91;102463.19;5027317;28;20416;-80
2022/02/23 03:15:18;;;;;;;0.10;0.10;;;;;;;8.33;61.19;102459.69;5033261;28;20056;-82
2022/02/23 03:17:44;;;;;;;0.10;0.10;;;;;;;8.34;60.79;102464.09;5024744;28;20037;-80
2022/02/23 03:20:10;;;;;;;0.10;0.10;;;;;;;8.31;61.21;102462.31;5025944;28;20488;-81
2022/02/23 03:22:37;;;;;;;0.10;0.10;;;;;;;8.25;61.89;102467.47;5026673;28;20029;-82
2022/02/23 03:25:05;;;;;;;0.10;0.10;;;;;;;8.28;60.93;102477.19;5025464;28;20030;-81
2022/02/23 03:27:31;;;;;;;0.10;0.10;;;;;;;8.23;61.59;102485.03;5033009;28;20025;-81
2022/02/23 03:29:58;;;;;;;0.55;0.55;;;;;;;8.20;62.44;102477.06;5032660;28;20069;-80
2022/02/23 03:32:24;;;;;;;0.10;0.10;;;;;;;8.20;62.15;102485.88;5030231;28;20439;-82
2022/02/23 03:34:51;;;;;;;0.10;0.10;;;;;;;8.21;61.78;102492.03;5032512;28;20083;-80
2022/02/23 03:37:18;;;;;;;0.10;0.10;;;;;;;8.07;61.93;102495.38;5033273;28;20034;-80
2022/02/23 03:39:44;;;;;;;0.10;0.10;;;;;;;8.16;61.77;102499.91;5032924;28;20049;-81
2022/02/23 03:42:10;;;;;;;0.20;0.20;;;;;;;8.11;62.39;102493.63;5033267;28;20075;-81
2022/02/23 03:44:36;;;;;;;0.10;0.10;;;;;;;8.04;62.34;102492.66;5027791;28;20140;-81
2022/02/23 03:47:03;;;;;;;0.10;0.10;;;;;;;8.06;61.70;102488.31;5031733;28;20024;-81
2022/02/23 03:49:29;;;;;;;0.10;0.10;;;;;;;8.04;62.60;102492.66;5030544;28;20034;-83
2022/02/23 03:51:55;;;;;;;0.10;0.10;;;;;;;8.06;62.25;102500.59;5027040;28;20160;-82
2022/02/23 03:54:21;;;;;;;0.10;0.10;;;;;;;8.01;62.01;102500.53;5018105;28;20069;-82
2022/02/23 03:56:48;;;;;;;0.10;0.10;;;;;;;8.01;61.98;102504.91;5017177;28;20034;-82
2022/02/23 03:59:15;;;;;;;0.10;0.10;;;;;;;7.99;61.36;102506.63;5025040;28;20417;-82
2022/02/23 04:01:45;;;;;;;0.10;0.10;;;;;;;7.94;62.25;102509.22;5031453;28;20480;-81
2022/02/23 04:04:11;;;;;;;0.20;0.20;;;;;;;7.89;62.96;102506.47;5026527;28;20071;-82
2022/02/23 04:06:38;;;;;;;0.10;0.10;;;;;;;7.86;62.43;102516.09;5029776;28;20087;-82
2022/02/23 04:09:07;;;;;;;0.20;0.20;;;;;;;7.82;63.24;102514.25;5021103;28;20100;-81
2022/02/23 04:11:34;;;;;;;0.10;0.10;;;;;;;7.85;63.03;102516.94;5021303;28;20027;-82
2022/02/23 04:14:01;;;;;;;0.10;0.10;;;;;;;7.86;62.82;102516.09;5027702;28;20026;-83
2022/02/23 04:16:27;;;;;;;0.00;0.00;;;;;;;7.84;62.25;102520.44;5048842;22;20033;-87
2022/02/23 04:18:55;;;;;;;0.20;0.20;;;;;;;7.77;63.24;102517.69;5055862;28;20463;-88
2022/02/23 04:21:22;;;;;;;0.10;0.10;;;;;;;7.77;63.06;102515.03;5038708;28;20080;-87
2022/02/23 04:23:48;;;;;;;0.20;0.20;;;;;;;7.72;63.60;102515.84;5054752;28;20095;-87
2022/02/23 04:26:16;;;;;;;1.17;1.17;;;;;;;7.78;62.71;102522.09;5050038;28;20445;-88
2022/02/23 04:28:43;;;;;;;0.10;0.10;;;;;;;7.75;63.17;102527.34;5034512;28;20040;-88
2022/02/23 04:31:10;;;;;;;1.73;0.57;;;;;;;7.74;62.98;102522.91;5036249;28;20030;-87
2022/02/23 04:33:36;;;;;;;0.10;0.10;;;;;;;7.72;63.10;102529.91;5035366;28;20490;-85
2022/02/23 04:36:05;;;;;;;0.20;0.20;;;;;;;7.72;62.51;102527.25;5035454;28;20037;-87
2022/02/23 04:38:31;;;;;;;0.10;0.10;;;;;;;7.70;62.54;102531.66;5035591;28;20123;-87
2022/02/23 04:40:57;;;;;;;0.10;0.10;;;;;;;7.59;63.67;102527.91;5034587;28;20036;-85
2022/02/23 04:43:23;;;;;;;0.10;0.10;;;;;;;7.57;63.18;102530.50;5035962;28;20120;-85
2022/02/23 04:45:50;;;;;;;0.10;0.10;;;;;;;7.63;63.32;102526.19;5035515;28;20027;-87
2022/02/23 04:48:17;;;;;;;0.10;0.10;;;;;;;7.58;63.39;102531.41;5035117;28;20377;-86
2022/02/23 04:50:44;;;;;;;0.10;0.10;;;;;;;7.53;63.40;102533.06;5036097;28;20108;-84
2022/02/23 04:53:10;;;;;;;0.20;0.20;;;;;;;7.52;63.92;102526.88;5035457;28;20033;-87
2022/02/23 04:55:36;;;;;;;0.20;0.20;;;;;;;7.58;62.87;102536.69;5035428;28;20033;-84
2022/02/23 04:58:07;;;;;;;0.13;0.13;;;;;;;7.59;63.35;102531.44;5017552;28;20052;-85
2022/02/23 05:00:36;;;;;;;0.10;0.10;;;;;;;7.59;63.69;102528.78;5035688;28;20036;-87
2022/02/23 05:03:03;;;;;;;0.10;0.10;;;;;;;7.63;63.19;102536.75;5035498;28;20119;-86
2022/02/23 05:05:29;;;;;;;0.20;0.20;;;;;;;7.65;63.42;102533.31;5035375;28;20029;-86
2022/02/23 05:07:55;;;;;;;0.10;0.10;;;;;;;7.64;63.20;102536.81;5035242;28;20460;-86
2022/02/23 05:10:21;;;;;;;0.10;0.10;;;;;;;7.68;62.73;102537.75;5035115;28;20041;-86
2022/02/23 05:12:47;;;;;;;0.20;0.20;;;;;;;7.67;62.75;102535.97;5035205;28;20026;-86
2022/02/23 05:15:14;;;;;;;0.10;0.10;;;;;;;7.69;62.70;102545.69;5033526;28;20036;-84
2022/02/23 05:17:45;;;;;;;0.10;0.10;;;;;;;7.66;63.19;102548.25;5033811;28;20079;-84
2022/02/23 05:20:11;;;;;;;0.13;0.13;;;;;;;7.59;63.09;102551.66;5034792;28;20083;-89
2022/02/23 05:22:38;;;;;;;0.10;0.10;;;;;;;7.54;62.78;102550.66;5033218;28;20025;-87
2022/02/23 05:25:04;;;;;;;0.10;0.10;;;;;;;7.52;63.00;102555.03;5017663;28;20364;-89
2022/02/23 05:27:31;;;;;;;0.20;0.20;;;;;;;7.48;63.02;102566.34;5033890;28;20465;-91
2022/02/23 05:29:57;;;;;;;0.10;0.10;;;;;;;7.40;62.84;102567.09;5034145;28;20032;-89
2022/02/23 05:32:23;;;;;;;0.10;0.10;;;;;;;7.28;62.73;102565.06;5033839;28;20026;-88
2022/02/23 05:34:49;;;;;;;0.10;0.10;;;;;;;7.25;63.24;102574.66;5034319;28;20120;-87
2022/02/23 05:37:15;;;;;;;0.15;0.15;;;;;;;7.16;63.42;102569.22;5033362;28;20029;-89
2022/02/23 05:39:41;;;;;;;0.15;0.15;;;;;;;7.12;63.10;102569.13;5035098;28;20044;-86
2022/02/23 05:42:08;;;;;;;0.20;0.20;;;;;;;7.11;63.29;102571.72;5033732;28;20026;-90
2022/02/23 05:44:34;;;;;;;0.10;0.10;;;;;;;7.10;63.13;102576.13;5033522;28;20057;-89
2022/02/23 05:47:00;;;;;;;0.10;0.10;;;;;;;7.07;63.33;102572.53;5035280;28;20030;-88
2022/02/23 05:49:26;;;;;;;0.10;0.10;;;;;;;7.05;63.18;102576.88;5034967;28;20065;-85
2022/02/23 05:51:52;;;;;;;0.20;0.20;;;;;;;6.99;63.15;102572.38;5033730;28;20461;-88
2022/02/23 05:54:18;;;;;;;0.10;0.10;;;;;;;6.91;62.75;102582.69;5034242;28;20029;-88
2022/02/23 05:56:45;;;;;;;0.20;0.20;;;;;;;6.83;62.93;102584.28;5016296;28;20026;-88
2022/02/23 05:59:11;;;;;;;0.10;0.10;;;;;;;6.72;62.86;102576.13;5033408;28;20033;-83
2022/02/23 06:01:37;;;;;;;0.10;0.10;;;;;;;6.64;62.88;102580.31;5033567;28;20501;-88
2022/02/23 06:04:04;;;;;;;0.20;0.20;;;;;;;6.59;62.89;102581.94;5033637;28;20052;-82
2022/02/23 06:06:30;;;;;;;0.10;0.10;;;;;;;6.51;63.03;102584.38;5033231;28;20029;-88
2022/02/23 06:08:57;;;;;;;0.10;0.10;;;;;;;6.43;63.18;102578.94;5034407;28;20049;-81
2022/02/23 06:11:24;;;;;;;0.10;0.10;;;;;;;6.33;63.13;102590.09;5034763;28;20053;-87
2022/02/23 06:13:51;;;;;;;0.10;0.10;;;;;;;6.26;63.71;102589.03;5034419;28;20365;-88
2022/02/23 06:16:19;;;;;;;0.10;0.10;;;;;;;6.26;63.59;102593.41;5036575;28;20025;-90
2022/02/23 06:18:45;;;;;;;0.10;0.10;;;;;;;6.14;64.16;102589.63;5038102;28;20030;-87
2022/02/23 06:21:12;;;;;;;0.10;0.10;;;;;;;6.14;64.36;102586.97;5037362;28;20472;-81
2022/02/23 06:23:38;;;;;;;0.10;0.10;;;;;;;6.16;64.08;102587.00;5038559;28;20030;-87
2022/02/23 06:26:05;;;;;;;0.10;0.10;;;;;;;6.20;64.20;102583.59;5037639;28;20030;-89
2022/02/23 06:28:32;;;;;;;0.20;0.20;;;;;;;6.18;64.25;102585.31;5037203;28;20395;-89
2022/02/23 06:30:58;;;;;;;0.10;0.10;;;;;;;6.15;64.25;102582.59;5038280;28;20053;-89
2022/02/23 06:33:25;;;;;;;0.10;0.10;;;;;;;6.10;63.90;102586.84;5037292;28;20029;-90
2022/02/23 06:35:52;;;;;;;0.20;0.20;;;;;;;6.04;64.07;102587.56;5037366;28;20570;-91
2022/02/23 06:38:19;;;;;;;0.10;0.10;;;;;;;5.97;64.41;102583.84;5037906;28;20116;-88
2022/02/23 06:40:48;;;;;;;0.10;0.10;;;;;;;5.94;64.10;102601.28;5037922;28;20029;-89
2022/02/23 06:43:16;;;;;;;0.20;0.20;;;;;;;5.89;64.42;102608.16;5037154;28;20036;-88
2022/02/23 06:45:46;;;;;;;0.10;0.10;;;;;;;5.89;64.67;102597.66;5036277;28;20391;-85
2022/02/23 06:48:12;;;;;;;0.20;0.20;;;;;;;5.87;64.96;102605.50;5036688;28;20524;-88
2022/02/23 06:50:39;;;;;;;0.10;0.10;;;;;;;5.88;65.02;102609.00;5036246;28;20045;-86
2022/02/23 06:53:06;;;;;;;0.10;0.10;;;;;;;5.90;64.77;102610.84;5036529;28;20065;-87
2022/02/23 06:55:33;;;;;;;0.13;0.13;;;;;;;5.88;65.45;102607.28;5037316;28;20033;-85
2022/02/23 06:58:00;;;;;;;0.10;0.10;;;;;;;5.91;65.22;102606.50;5036195;28;20025;-85
2022/02/23 07:00:27;;;;;;;0.10;0.10;;;;;;;5.89;65.33;102598.53;5036870;28;20075;-79
2022/02/23 07:02:54;;;;;;;0.10;0.10;;;;;;;5.95;65.28;102600.44;5037157;28;20070;-88
2022/02/23 07:05:21;;;;;;;0.10;0.10;;;;;;;5.94;65.21;102596.03;5037109;28;20100;-86
2022/02/23 07:07:48;;;;;;;0.10;0.10;;;;;;;5.94;65.19;102593.41;5036999;28;20029;-91
2022/02/23 07:10:23;;;;;;;0.20;0.20;;;;;;;5.97;65.07;102596.13;5037615;28;20025;-87
2022/02/23 07:12:50;;;;;;;0.17;0.17;;;;;;;5.89;65.65;102605.53;5020454;28;20443;-88
2022/02/23 07:15:18;;;;;;;0.10;0.10;;;;;;;5.90;65.28;102600.31;5037041;28;20072;-88
2022/02/23 07:17:44;;;;;;;0.10;0.10;;;;;;;5.89;65.23;102603.78;5036058;28;20033;-89
2022/02/23 07:20:11;;;;;;;0.10;0.10;;;;;;;5.91;65.25;102596.84;5035746;28;20138;-78
2022/02/23 07:22:38;;;;;;;1.38;1.38;;;;;;;5.93;65.29;102600.41;5018234;28;20026;-87
2022/02/23 07:25:06;;;;;;;0.10;0.10;;;;;;;5.95;65.68;102605.72;5036095;28;20052;-89
2022/02/23 07:27:32;;;;;;;0.10;0.10;;;;;;;5.95;65.75;102608.34;5035593;28;20044;-86
2022/02/23 07:29:59;;;;;;;0.10;0.10;;;;;;;5.96;66.04;102611.00;5036695;28;20061;-87
2022/02/23 07:32:28;;;;;;;0.10;0.10;;;;;;;5.97;66.66;102609.28;5037220;28;20026;-88
2022/02/23 07:34:55;;;;;;;0.10;0.10;;;;;;;6.03;66.29;102605.94;5036827;28;20095;-88
2022/02/23 07:37:21;;;;;;;0.10;0.10;;;;;;;6.06;67.94;102606.94;5035871;28;20120;-87
2022/02/23 07:39:54;;;;;;;1.15;1.08;;;;;;;6.19;67.74;102602.00;5036044;28;20029;-87
2022/02/23 07:42:20;;;;;;;0.10;0.10;;;;;;;6.21;66.24;102603.81;5037110;28;20038;-84
2022/02/23 07:44:47;;;;;;;3.72;2.38;;;;;;;6.25;67.60;102608.28;5036713;28;20036;-80
2022/02/23 07:47:15;;;;;;;0.45;0.40;;;;;;;6.43;67.56;102613.16;5036345;28;20211;-89
2022/02/23 07:49:44;;;;;;;0.10;0.10;;;;;;;6.48;66.60;102594.88;5036544;28;20029;-89
2022/02/23 07:52:10;;;;;;;5.25;2.30;;;;;;;6.55;66.71;102607.31;5037516;28;20049;-83
2022/02/23 07:54:36;;;;;;;0.10;0.10;;;;;;;6.58;67.45;102606.50;5035625;28;20033;-89
2022/02/23 07:57:03;;;;;;;0.10;0.10;;;;;;;6.71;67.24;102608.59;5036212;28;20030;-85
2022/02/23 07:59:34;;;;;;;0.47;0.47;;;;;;;6.83;67.44;102601.81;5003091;28;20357;-92
2022/02/23 08:02:00;;;;;;;0.10;0.10;;;;;;;6.90;67.06;102609.03;5036952;28;20026;-88
2022/02/23 08:04:28;;;;;;;0.10;0.10;;;;;;;6.98;66.71;102607.47;5035537;28;20033;-86
2022/02/23 08:06:55;;;;;;;0.10;0.10;;;;;;;7.04;67.61;102618.16;5035391;28;20435;-87
2022/02/23 08:09:21;;;;;;;0.20;0.20;;;;;;;7.09;67.85;102616.53;5034940;28;20125;-86
2022/02/23 08:11:48;;;;;;;0.10;0.10;;;;;;;7.19;67.54;102622.91;5034707;28;20021;-88
2022/02/23 08:14:14;;;;;;;0.10;0.10;;;;;;;7.21;67.36;102610.63;5035987;28;20030;-87
2022/02/23 08:19:31;;;;;;;0.10;0.10;;;;;;;7.38;67.28;102621.53;5034777;28;20042;-86
2022/02/23 08:22:00;;;;;;;0.30;0.30;;;;;;;7.43;66.78;102619.91;5034989;28;20419;-89
2022/02/23 08:24:27;;;;;;;0.10;0.10;;;;;;;7.54;66.92;102616.59;5034791;28;20029;-89
2022/02/23 08:26:56;;;;;;;0.10;0.10;;;;;;;7.67;67.02;102605.44;5034708;28;20032;-87
2022/02/23 08:29:23;;;;;;;0.10;0.10;;;;;;;7.75;66.18;102609.13;5035415;28;20041;-87
2022/02/23 08:31:50;;;;;;;0.10;0.10;;;;;;;7.81;65.78;102610.13;5018489;28;20538;-90
2022/02/23 08:34:19;;;;;;;0.10;0.10;;;;;;;7.82;66.47;102602.22;5035737;28;20069;-89
2022/02/23 08:36:46;;;;;;;0.10;0.10;;;;;;;7.90;66.29;102605.91;5017320;28;20039;-88
2022/02/23 08:39:14;;;;;;;0.10;0.10;;;;;;;8.06;66.76;102609.75;5034864;28;20029;-88
2022/02/23 08:41:40;;;;;;;0.10;0.10;;;;;;;8.10;66.49;102611.56;5035755;28;20030;-88
2022/02/23 08:44:07;;;;;;;0.10;0.10;;;;;;;8.24;65.80;102603.00;5034978;28;20025;-88
2022/02/23 08:46:34;;;;;;;0.10;0.10;;;;;;;8.35;66.34;102612.00;5036078;28;20040;-84
2022/02/23 08:49:01;;;;;;;0.20;0.20;;;;;;;8.45;66.16;102609.53;5035506;28;20040;-89
2022/02/23 08:51:28;;;;;;;0.10;0.10;;;;;;;8.46;65.71;102609.59;5035488;28;20117;-87
2022/02/23 08:53:57;;;;;;;0.10;0.10;;;;;;;8.60;65.28;102609.84;5034708;28;20487;-90
2022/02/23 08:56:23;;;;;;;0.43;0.43;;;;;;;8.57;65.36;102601.84;5034626;28;20502;-90
2022/02/23 08:58:50;;;;;;;0.10;0.10;;;;;;;8.70;65.03;102608.22;5034738;28;20545;-89
2022/02/23 09:01:16;;;;;;;0.10;0.10;;;;;;;8.64;65.61;102619.56;5034779;28;20036;-91
2022/02/23 09:03:43;;;;;;;0.10;0.10;;;;;;;8.79;65.52;102623.34;5034629;28;20021;-89
2022/02/23 09:06:10;;;;;;;0.10;0.10;;;;;;;8.85;64.89;102610.22;5034905;28;20500;-88
2022/02/23 09:08:37;;;;;;;0.00;0.00;;;;;;;8.92;65.31;102612.09;5034228;28;20034;-87
2022/02/23 09:11:03;;;;;;;3.42;1.05;;;;;;;9.02;65.26;102606.09;5034678;28;20044;-86
2022/02/23 09:13:30;;;;;;;0.10;0.10;;;;;;;9.16;64.74;102613.31;5034290;28;20025;-87
2022/02/23 09:15:56;;;;;;;0.00;0.00;;;;;;;9.10;65.34;102623.78;5034966;28;20116;-88
2022/02/23 09:18:22;;;;;;;0.10;0.10;;;;;;;9.21;65.17;102617.81;5034835;28;20029;-84
2022/02/23 09:20:48;;;;;;;0.10;0.10;;;;;;;9.36;65.05;102617.13;5034397;28;20117;-88
2022/02/23 09:23:15;;;;;;;0.28;0.28;;;;;;;9.47;65.00;102611.09;5034378;28;20488;-87
2022/02/23 09:25:41;;;;;;;0.17;0.17;;;;;;;9.50;64.79;102622.59;5034624;28;20040;-86
2022/02/23 09:28:09;;;;;;;0.10;0.10;;;;;;;9.58;64.55;102617.41;5016424;28;20029;-92
2022/02/23 09:30:36;;;;;;;0.73;0.73;;;;;;;9.66;64.85;102621.03;5033924;28;20040;-89
2022/02/23 09:33:04;;;;;;;0.10;0.10;;;;;;;9.83;64.16;102617.69;5035628;28;20022;-93
2022/02/23 09:35:37;;;;;;;0.10;0.10;;;;;;;9.91;64.12;102613.41;5035181;28;20036;-93
2022/02/23 09:38:03;;;;;;;1.48;1.17;;;;;;;9.97;64.12;102616.13;5035241;28;20025;-89
2022/02/23 09:40:29;;;;;;;0.10;0.10;;;;;;;9.99;64.00;102610.81;5035596;28;20049;-87
2022/02/23 09:42:55;;;;;;;0.10;0.10;;;;;;;9.94;64.02;102602.81;5034398;28;20041;-86
2022/02/23 09:45:22;;;;;;;0.10;0.10;;;;;;;10.02;64.12;102601.16;5033068;28;20072;-84
2022/02/23 09:47:50;;;;;;;0.00;0.00;;;;;;;10.03;63.30;102604.69;5033488;28;20033;-85
2022/02/23 09:50:20;;;;;;;0.10;0.10;;;;;;;10.15;63.53;102609.22;5035541;28;20025;-87
2022/02/23 09:52:48;;;;;;;0.68;0.68;;;;;;;10.25;63.22;102611.09;5037969;28;20099;-86
2022/02/23 09:55:14;;;;;;;0.10;0.10;;;;;;;10.35;62.86;102597.09;5038585;28;20025;-88
2022/02/23 09:57:41;;;;;;;0.10;0.10;;;;;;;10.35;62.44;102605.03;5037130;28;20029;-85
2022/02/23 10:00:08;;;;;;;1.25;1.23;;;;;;;10.42;62.60;102599.78;5037658;28;20083;-80
2022/02/23 10:02:35;;;;;;;0.10;0.10;;;;;;;10.56;62.12;102591.97;5038056;28;20112;-86
2022/02/23 10:05:04;;;;;;;0.10;0.10;;;;;;;10.66;62.43;102601.78;5037582;28;20361;-86
2022/02/23 10:07:38;;;;;;;0.50;0.50;;;;;;;10.73;62.11;102593.00;5037556;28;20041;-88
2022/02/23 10:10:08;;;;;;;2.63;2.35;;;;;;;10.84;61.69;102586.00;5037679;28;20099;-85
2022/02/23 10:12:36;;;;;;;0.10;0.10;;;;;;;10.95;61.54;102588.75;5037799;28;20026;-83
2022/02/23 10:17:51;;;;;;;0.47;0.47;;;;;;;11.03;60.68;102586.13;5076013;28;20418;-85
2022/02/23 10:20:28;;;;;;;0.43;0.43;;;;;;;11.16;60.02;102597.69;5071550;28;20028;-87
2022/02/23 10:23:03;;;;;;;0.10;0.10;;;;;;;11.20;60.04;102596.81;5072560;28;20029;-89
2022/02/23 10:25:31;;;;;;;0.10;0.10;;;;;;;11.27;60.15;102597.75;5074646;28;20062;-85
2022/02/23 10:28:16;;;;;;;0.40;0.40;;;;;;;11.45;59.83;102610.22;5072566;28;20087;-87
2022/02/23 10:30:49;;;;;;;0.20;0.20;;;;;;;11.55;59.55;102606.75;5071874;28;20373;-87
2022/02/23 10:33:19;;;;;;;2.45;2.22;;;;;;;11.64;59.26;102590.84;5071383;28;20032;-87
2022/02/23 10:38:45;;;;;;;0.20;0.20;;;;;;;11.81;58.26;102593.56;5071607;28;20138;-87
2022/02/23 10:41:25;;;;;;;0.10;0.10;;;;;;;11.84;57.77;102592.69;5071912;28;20036;-87
2022/02/23 10:43:52;;;;;;;0.75;0.63;;;;;;;11.88;57.73;102602.41;5072002;28;20078;-88
2022/02/23 10:46:21;;;;;;;0.08;0.08;;;;;;;11.97;58.08;102599.84;5071177;28;20025;-88
2022/02/23 10:48:53;;;;;;;0.30;0.30;;;;;;;12.02;57.29;102590.97;5071730;28;20056;-89
2022/02/23 10:51:29;;;;;;;0.63;0.63;;;;;;;12.05;56.31;102590.97;5071868;28;20032;-89
2022/02/23 10:56:44;;;;;;;0.10;0.10;;;;;;;12.10;56.07;102583.88;5084737;27;20405;-88
2022/02/23 10:59:15;;;;;;;0.10;0.10;;;;;;;12.14;54.25;102591.00;5071863;28;20522;-88
2022/02/23 11:01:44;;;;;;;0.45;0.45;;;;;;;12.20;54.71;102585.69;5071901;28;20384;-88
2022/02/23 11:04:10;;;;;;;0.10;0.10;;;;;;;12.24;54.52;102582.16;5071096;28;20039;-88
2022/02/23 11:06:38;;;;;;;0.10;0.10;;;;;;;12.39;54.55;102575.94;5070836;28;20029;-88
2022/02/23 11:09:05;;;;;;;0.10;0.10;;;;;;;12.41;53.56;102565.31;5072246;28;20037;-89
2022/02/23 11:11:33;;;;;;;0.08;0.08;;;;;;;12.49;53.71;102582.16;5071754;28;20033;-84
2022/02/23 11:14:00;;;;;;;2.47;2.30;;;;;;;12.50;53.27;102573.31;5071604;28;20078;-89
2022/02/23 11:16:29;;;;;;;0.10;0.10;;;;;;;12.60;52.52;102575.06;5070953;28;20134;-88
2022/02/23 11:18:58;;;;;;;0.10;0.10;;;;;;;12.67;53.22;102564.44;5070770;28;20124;-87
2022/02/23 11:21:26;;;;;;;0.10;0.10;;;;;;;12.51;52.39;102567.09;5071646;28;20044;-86
2022/02/23 11:24:00;;;;;;;0.40;0.40;;;;;;;12.79;52.23;102564.41;5070901;28;20064;-86
2022/02/23 11:26:32;;;;;;;0.00;0.00;;;;;;;12.71;52.06;102576.81;5071052;28;20029;-80
2022/02/23 11:29:21;;;;;;;3.20;1.60;;;;;;;12.84;52.39;102565.28;5070812;28;20099;-87
2022/02/23 11:31:50;;;;;;;0.10;0.10;;;;;;;12.92;51.87;102566.16;5085939;28;20055;-87
2022/02/23 11:34:21;;;;;;;0.10;0.10;;;;;;;12.95;51.14;102555.50;5070700;28;20063;-87
2022/02/23 11:36:52;;;;;;;0.50;0.50;;;;;;;12.84;50.97;102545.78;5070544;28;20025;-89
2022/02/23 11:42:03;;;;;;;0.10;0.10;;;;;;;12.99;50.59;102550.19;5091379;28;20430;-88
2022/02/23 11:44:35;;;;;;;0.00;0.00;;;;;;;13.15;50.70;102553.69;5071470;28;20036;-85
2022/02/23 11:47:11;;;;;;;0.10;0.10;;;;;;;13.30;49.66;102542.97;5063054;28;20128;-86